This is the latest recevied weather packets stored in our database for station/object S54A-11. If no packets are shown the sender has not sent any weather packets the latest 10 day(s).
| Time | Temp. | Humidity | Pressure | Rain* | Wind** | Luminosity | Snow |
|---|---|---|---|---|---|---|---|
| 1788553873 | 24.44° C | 42% | 1017.7 hPa | - | - | - | - |
| 1788552971 | 24.44° C | 42% | 1017.6 hPa | - | - | - | - |
| 1788552071 | 25° C | 42% | 1017.8 hPa | - | - | - | - |
| 1788551171 | 25° C | 42% | 1017.9 hPa | - | - | - | - |
| 1788550271 | 25° C | 41% | 1017.9 hPa | - | - | - | - |
| 1788549371 | 25.56° C | 43% | 1017.9 hPa | - | - | - | - |
| 1788545770 | 25.56° C | 40% | 1017.7 hPa | - | - | - | - |
| 1788543970 | 26.67° C | 39% | 1017.6 hPa | - | - | - | - |
| 1788543070 | 27.22° C | 39% | 1017.6 hPa | - | - | - | - |
| 1788542170 | 28.89° C | 37% | 1017.5 hPa | - | - | - | - |
| 1788539470 | 31.11° C | 35% | 1017.5 hPa | - | - | - | - |
| 1788538570 | 31.11° C | 34% | 1017.6 hPa | - | - | - | - |
| 1788535868 | 32.22° C | 32% | 1017.5 hPa | - | - | - | - |
| 1788534968 | 32.78° C | 32% | 1017.9 hPa | - | - | - | - |
| 1788534068 | 33.33° C | 31% | 1018 hPa | - | - | - | - |
| 1788532268 | 33.33° C | 31% | 1017.9 hPa | - | - | - | - |
| 1788531368 | 33.89° C | 31% | 1018.2 hPa | - | - | - | - |
| 1788530468 | 33.89° C | 32% | 1018.2 hPa | - | - | - | - |
| 1788529568 | 34.44° C | 32% | 1018.2 hPa | - | - | - | - |
| 1788528668 | 35.56° C | 32% | 1018.3 hPa | - | - | - | - |
| 1788527768 | 36.11° C | 32% | 1018.5 hPa | - | - | - | - |
| 1788526868 | 37.22° C | 31% | 1018.8 hPa | - | - | - | - |
| 1788525968 | 39.44° C | 29% | 1019 hPa | - | - | - | - |
| 1788525067 | 40° C | 29% | 1019.3 hPa | - | - | - | - |
| 1788524167 | 38.89° C | 30% | 1019.6 hPa | - | - | - | - |
* Rain since midnight (hover to see other rain measurements)
** Current wind speed in m/s (hover to see current wind gust speed)